createdAt,value
2019-03-30T00:01:37.963Z,8.57
2019-03-30T00:04:44.942Z,11.83
2019-03-30T00:07:51.854Z,9.23
2019-03-30T00:10:59.204Z,11.33
2019-03-30T00:14:07.161Z,8.83
2019-03-30T00:17:14.333Z,9.38
2019-03-30T00:20:21.353Z,12.97
2019-03-30T00:23:28.457Z,10.40
2019-03-30T00:26:35.264Z,11.37
2019-03-30T00:29:42.392Z,14.77
2019-03-30T00:32:49.328Z,9.50
2019-03-30T00:35:56.482Z,13.17
2019-03-30T00:39:04.215Z,12.67
2019-03-30T00:42:11.404Z,18.73
2019-03-30T00:45:18.343Z,15.57
2019-03-30T00:48:25.270Z,15.43
2019-03-30T00:51:32.483Z,12.10
2019-03-30T00:54:40.239Z,10.97
2019-03-30T00:57:47.284Z,11.57
2019-03-30T01:00:55.913Z,16.30
2019-03-30T01:04:02.712Z,14.30
2019-03-30T01:07:10.061Z,13.97
2019-03-30T01:10:17.168Z,14.63
2019-03-30T01:13:26.317Z,18.40
2019-03-30T01:16:33.211Z,11.20
2019-03-30T01:19:40.190Z,17.37
2019-03-30T01:22:47.156Z,15.70
2019-03-30T01:25:54.722Z,12.50
2019-03-30T01:29:01.719Z,16.50
2019-03-30T01:32:08.680Z,12.87
2019-03-30T01:35:15.834Z,13.00
2019-03-30T01:38:22.787Z,10.73
2019-03-30T01:41:29.685Z,21.03
2019-03-30T01:44:36.598Z,17.47
2019-03-30T01:47:43.573Z,11.63
2019-03-30T01:50:50.762Z,17.00
2019-03-30T01:53:57.738Z,15.07
2019-03-30T01:57:05.143Z,14.58
2019-03-30T02:00:12.318Z,15.50
2019-03-30T02:03:19.509Z,10.37
2019-03-30T02:06:26.427Z,14.30
2019-03-30T02:09:33.342Z,14.60
2019-03-30T02:12:40.311Z,15.33
2019-03-30T02:15:47.154Z,13.30
2019-03-30T02:18:54.257Z,13.53
2019-03-30T02:22:01.352Z,13.00
2019-03-30T02:25:08.423Z,15.57
2019-03-30T02:28:15.387Z,18.40
2019-03-30T02:31:22.297Z,13.57
2019-03-30T02:34:30.135Z,18.63
2019-03-30T02:37:37.187Z,17.30
2019-03-30T02:40:44.336Z,16.60
2019-03-30T02:43:51.146Z,10.43
2019-03-30T02:46:58.162Z,15.38
2019-03-30T02:50:05.216Z,14.80
2019-03-30T02:53:12.117Z,15.87
2019-03-30T02:56:19.075Z,16.90
2019-03-30T02:59:26.330Z,11.37
2019-03-30T03:02:33.257Z,16.70
2019-03-30T03:05:41.333Z,21.30
2019-03-30T03:08:48.196Z,13.03
2019-03-30T03:11:55.104Z,18.30
2019-03-30T03:15:02.160Z,22.93
2019-03-30T03:18:09.282Z,15.70
2019-03-30T03:21:16.246Z,10.73
2019-03-30T03:24:23.245Z,10.93
2019-03-30T03:27:30.168Z,19.17
2019-03-30T03:30:37.228Z,12.03
2019-03-30T03:33:44.122Z,23.00
2019-03-30T03:36:51.830Z,11.03
2019-03-30T03:39:58.808Z,15.07
2019-03-30T03:43:05.825Z,19.83
2019-03-30T03:46:13.791Z,23.90
2019-03-30T03:49:20.679Z,22.03
2019-03-30T03:52:28.048Z,21.65
2019-03-30T03:55:35.907Z,13.75
2019-03-30T03:58:42.791Z,17.40
2019-03-30T04:01:50.638Z,13.88
2019-03-30T04:04:59.480Z,19.45
2019-03-30T04:08:07.053Z,12.97
2019-03-30T04:11:15.297Z,13.60
2019-03-30T04:14:24.142Z,10.73
2019-03-30T04:17:31.108Z,13.03
2019-03-30T04:20:38.154Z,19.63
2019-03-30T04:23:45.122Z,20.93
2019-03-30T04:26:52.050Z,17.03
2019-03-30T04:29:59.065Z,14.77
2019-03-30T04:33:07.999Z,14.98
2019-03-30T04:36:14.871Z,19.80
2019-03-30T04:39:21.898Z,15.87
2019-03-30T04:42:28.873Z,16.63
2019-03-30T04:45:36.913Z,20.90
2019-03-30T04:48:43.764Z,12.23
2019-03-30T04:51:57.340Z,21.03
2019-03-30T04:54:59.500Z,13.67
2019-03-30T04:58:09.197Z,13.60
2019-03-30T05:01:15.204Z,18.40
2019-03-30T05:04:22.596Z,13.70
2019-03-30T05:07:29.441Z,18.03
2019-03-30T05:10:36.544Z,16.33
2019-03-30T05:13:43.349Z,13.30
2019-03-30T05:16:50.255Z,10.47
2019-03-30T05:19:57.313Z,20.27
2019-03-30T05:23:04.250Z,19.00
2019-03-30T05:26:11.199Z,14.00
2019-03-30T05:29:18.568Z,15.47
2019-03-30T05:32:25.597Z,11.90
2019-03-30T05:35:32.767Z,14.80
2019-03-30T05:38:39.604Z,8.50
2019-03-30T05:41:46.449Z,14.27
2019-03-30T05:44:53.563Z,12.73
2019-03-30T05:48:00.450Z,11.83
2019-03-30T05:51:07.343Z,10.77
2019-03-30T05:54:15.374Z,14.30
2019-03-30T05:57:22.413Z,9.63
2019-03-30T06:00:29.353Z,15.07
2019-03-30T06:03:36.237Z,17.43
2019-03-30T06:06:43.740Z,12.00
2019-03-30T06:09:50.664Z,14.90
2019-03-30T06:12:57.670Z,14.70
2019-03-30T06:16:04.563Z,11.97
2019-03-30T06:19:11.552Z,13.90
2019-03-30T06:22:19.577Z,17.40
2019-03-30T06:25:26.905Z,11.37
2019-03-30T06:28:33.934Z,11.83
2019-03-30T06:31:40.831Z,12.13
2019-03-30T06:34:47.893Z,18.77
2019-03-30T06:37:55.459Z,14.03
2019-03-30T06:41:02.411Z,13.60
2019-03-30T06:44:09.426Z,26.47
2019-03-30T06:47:16.535Z,13.33
2019-03-30T06:50:23.578Z,12.37
2019-03-30T06:53:30.512Z,10.90
2019-03-30T06:56:37.509Z,23.13
2019-03-30T06:59:44.540Z,16.35
2019-03-30T07:02:51.496Z,10.50
2019-03-30T07:05:59.391Z,7.63
2019-03-30T07:09:07.520Z,14.27
2019-03-30T07:12:14.811Z,12.47
2019-03-30T07:15:22.584Z,14.03
2019-03-30T07:18:29.704Z,10.80
2019-03-30T07:21:36.695Z,6.63
2019-03-30T07:24:43.622Z,12.10
2019-03-30T07:27:50.504Z,13.17
2019-03-30T07:30:57.423Z,15.77
2019-03-30T07:34:04.402Z,12.97
2019-03-30T07:37:11.457Z,14.43
2019-03-30T07:40:18.898Z,17.77
2019-03-30T07:43:25.829Z,11.73
2019-03-30T07:46:32.742Z,5.77
2019-03-30T07:49:40.345Z,11.55
2019-03-30T07:52:47.237Z,5.67
2019-03-30T07:56:07.785Z,8.43
2019-03-30T07:59:03.838Z,9.53
2019-03-30T08:02:10.862Z,11.87
2019-03-30T08:05:17.818Z,8.70
2019-03-30T08:08:24.851Z,13.03
2019-03-30T08:11:32.107Z,8.83
2019-03-30T08:14:40.112Z,13.13
2019-03-30T08:17:47.040Z,10.87
2019-03-30T08:20:53.933Z,9.77
2019-03-30T08:24:00.898Z,9.70
2019-03-30T08:27:09.162Z,6.47
2019-03-30T08:30:16.303Z,10.17
2019-03-30T08:33:23.264Z,10.90
2019-03-30T08:36:30.262Z,9.30
2019-03-30T08:39:37.326Z,5.90
2019-03-30T08:42:44.986Z,14.80
2019-03-30T08:45:51.900Z,21.77
2019-03-30T08:48:58.827Z,12.03
2019-03-30T08:52:05.794Z,5.93
2019-03-30T08:55:12.814Z,8.03
2019-03-30T08:58:19.767Z,13.37
2019-03-30T09:01:26.707Z,8.23
2019-03-30T09:04:33.583Z,9.30
2019-03-30T09:07:40.967Z,8.90
2019-03-30T09:10:47.854Z,7.27
2019-03-30T09:13:55.177Z,5.70
2019-03-30T09:17:02.220Z,3.73
2019-03-30T09:20:10.592Z,6.53
2019-03-30T09:23:18.470Z,9.87
2019-03-30T09:26:25.543Z,6.17
2019-03-30T09:29:32.570Z,4.70
2019-03-30T09:32:39.628Z,3.93
2019-03-30T09:35:46.503Z,5.53
2019-03-30T09:38:53.476Z,5.53
2019-03-30T09:42:00.351Z,9.63
2019-03-30T09:45:08.018Z,5.93
2019-03-30T09:48:14.947Z,5.40
2019-03-30T09:51:22.007Z,6.67
2019-03-30T09:54:28.912Z,8.90
2019-03-30T09:57:35.805Z,3.13
2019-03-30T10:00:43.663Z,4.80
2019-03-30T10:03:50.591Z,6.90
2019-03-30T10:06:57.539Z,4.27
2019-03-30T10:10:04.576Z,4.78
2019-03-30T10:13:11.430Z,6.93
2019-03-30T10:16:18.788Z,6.12
2019-03-30T10:19:27.790Z,5.50
2019-03-30T10:22:34.455Z,4.83
2019-03-30T10:25:41.383Z,5.50
2019-03-30T10:28:48.398Z,4.62
2019-03-30T10:31:55.493Z,8.60
2019-03-30T10:35:02.494Z,5.42
2019-03-30T10:38:09.456Z,8.38
2019-03-30T10:41:16.472Z,5.90
2019-03-30T10:44:23.623Z,7.62
2019-03-30T10:47:31.881Z,3.72
2019-03-30T10:50:38.922Z,7.70
2019-03-30T10:53:46.134Z,2.30
2019-03-30T10:56:53.147Z,3.30
2019-03-30T11:00:00.382Z,3.12
2019-03-30T11:03:07.288Z,6.40
2019-03-30T11:06:15.290Z,8.43
2019-03-30T11:09:24.815Z,7.33
2019-03-30T11:12:31.742Z,8.20
2019-03-30T11:15:38.726Z,3.80
2019-03-30T11:18:46.207Z,4.17
2019-03-30T11:21:53.217Z,5.30
2019-03-30T11:25:07.531Z,26.35
2019-03-30T11:28:09.089Z,4.70
2019-03-30T11:31:16.247Z,18.07
2019-03-30T11:34:25.194Z,5.75
2019-03-30T11:37:32.208Z,6.87
2019-03-30T11:40:39.267Z,8.03
2019-03-30T11:43:46.349Z,4.62
2019-03-30T11:46:53.313Z,9.00
2019-03-30T11:50:00.657Z,2.77
2019-03-30T11:53:08.839Z,2.20
2019-03-30T11:56:15.989Z,11.53
2019-03-30T11:59:23.206Z,4.25
2019-03-30T12:02:31.396Z,3.15
2019-03-30T12:05:38.401Z,6.92
2019-03-30T12:08:45.350Z,3.27
2019-03-30T12:11:52.323Z,12.43
2019-03-30T12:14:59.480Z,3.27
2019-03-30T12:18:06.482Z,8.95
2019-03-30T12:21:13.885Z,2.40
2019-03-30T12:24:20.920Z,5.17
2019-03-30T12:27:27.876Z,8.13
2019-03-30T12:30:34.919Z,2.72
2019-03-30T12:33:41.987Z,6.03
2019-03-30T12:36:49.082Z,10.20
2019-03-30T12:39:58.269Z,5.53
2019-03-30T12:43:04.707Z,2.70
2019-03-30T12:46:11.866Z,5.20
2019-03-30T12:49:18.929Z,7.05
2019-03-30T12:52:27.319Z,4.25
2019-03-30T12:55:34.310Z,2.92
2019-03-30T12:58:41.539Z,3.77
2019-03-30T13:01:48.562Z,8.25
2019-03-30T13:04:55.560Z,4.85
2019-03-30T13:08:02.574Z,2.55
2019-03-30T13:11:09.605Z,6.20
2019-03-30T13:14:16.649Z,2.70
2019-03-30T13:17:23.666Z,6.97
2019-03-30T13:20:30.567Z,2.50
2019-03-30T13:23:37.869Z,7.78
2019-03-30T13:26:44.986Z,6.72
2019-03-30T13:29:52.166Z,2.67
2019-03-30T13:32:59.198Z,4.00
2019-03-30T13:36:10.531Z,4.55
2019-03-30T13:39:16.608Z,11.70
2019-03-30T13:42:23.728Z,4.60
2019-03-30T13:45:30.705Z,2.40
2019-03-30T13:48:37.807Z,8.45
2019-03-30T13:51:44.911Z,6.47
2019-03-30T13:54:52.102Z,6.35
2019-03-30T13:57:59.072Z,8.33
2019-03-30T14:01:05.964Z,6.70
2019-03-30T14:04:12.969Z,6.43
2019-03-30T14:07:19.983Z,36.40
2019-03-30T14:10:26.920Z,10.27
2019-03-30T14:13:33.978Z,8.47
2019-03-30T14:16:40.878Z,13.97
2019-03-30T14:19:47.895Z,6.78
2019-03-30T14:22:54.777Z,6.80
2019-03-30T14:26:01.960Z,3.27
2019-03-30T14:29:08.909Z,7.53
2019-03-30T14:32:15.993Z,4.62
2019-03-30T14:35:22.993Z,8.28
2019-03-30T14:38:29.863Z,7.57
2019-03-30T14:41:36.910Z,5.83
2019-03-30T14:44:43.947Z,5.63
2019-03-30T14:47:50.754Z,5.30
2019-03-30T14:50:57.589Z,3.37
2019-03-30T14:54:04.531Z,4.77
2019-03-30T14:57:12.999Z,4.90
2019-03-30T15:00:20.122Z,9.47
2019-03-30T15:03:27.204Z,4.33
2019-03-30T15:06:34.275Z,6.83
2019-03-30T15:09:41.222Z,3.03
2019-03-30T15:12:48.128Z,4.93
2019-03-30T15:15:55.009Z,3.03
2019-03-30T15:19:02.940Z,9.53
2019-03-30T15:22:10.264Z,6.00
2019-03-30T15:25:17.215Z,6.20
2019-03-30T15:28:24.455Z,5.67
2019-03-30T15:31:31.462Z,6.97
2019-03-30T15:34:38.408Z,5.60
2019-03-30T15:37:45.199Z,11.30
2019-03-30T15:40:55.438Z,8.20
2019-03-30T15:44:00.827Z,3.67
2019-03-30T15:47:07.811Z,15.37
2019-03-30T15:50:14.913Z,8.40
2019-03-30T15:53:21.751Z,7.60
2019-03-30T15:56:28.717Z,6.43
2019-03-30T15:59:36.850Z,8.53
2019-03-30T16:02:43.728Z,7.10
2019-03-30T16:05:50.717Z,9.43
2019-03-30T16:08:57.555Z,11.80
2019-03-30T16:12:04.482Z,15.67
2019-03-30T16:15:11.687Z,9.57
2019-03-30T16:18:19.284Z,13.57
2019-03-30T16:21:26.284Z,6.43
2019-03-30T16:24:33.368Z,25.53
2019-03-30T16:27:42.039Z,2.53
2019-03-30T16:30:49.339Z,8.77
2019-03-30T16:33:56.646Z,6.63
2019-03-30T16:37:04.152Z,11.60
2019-03-30T16:40:11.482Z,12.00
2019-03-30T16:43:18.420Z,6.77
2019-03-30T16:46:25.578Z,8.13
2019-03-30T16:49:32.526Z,8.90
2019-03-30T16:52:41.184Z,8.60
2019-03-30T16:55:49.887Z,7.87
2019-03-30T16:58:56.877Z,9.13
2019-03-30T17:02:03.987Z,13.47
2019-03-30T17:05:11.770Z,9.43
2019-03-30T17:08:18.704Z,7.77
2019-03-30T17:11:26.533Z,15.27
2019-03-30T17:14:33.649Z,5.43
2019-03-30T17:17:40.553Z,9.13
2019-03-30T17:20:47.827Z,7.83
2019-03-30T17:23:54.929Z,15.10
2019-03-30T17:27:03.546Z,6.03
2019-03-30T17:30:10.752Z,5.73
2019-03-30T17:33:18.177Z,6.23
2019-03-30T17:36:28.318Z,8.90
2019-03-30T17:39:35.216Z,7.03
2019-03-30T17:42:42.164Z,8.40
2019-03-30T17:45:49.104Z,6.57
2019-03-30T17:48:56.111Z,7.47
2019-03-30T17:52:03.292Z,9.45
2019-03-30T17:55:10.296Z,7.70
2019-03-30T17:58:18.304Z,6.90
2019-03-30T18:01:25.214Z,8.10
2019-03-30T18:04:32.798Z,4.67
2019-03-30T18:07:39.673Z,7.97
2019-03-30T18:10:46.610Z,4.27
2019-03-30T18:13:53.623Z,17.67
2019-03-30T18:17:00.527Z,7.87
2019-03-30T18:20:07.638Z,9.63
2019-03-30T18:23:14.687Z,10.67
2019-03-30T18:26:22.013Z,10.43
2019-03-30T18:29:29.318Z,7.63
2019-03-30T18:32:37.432Z,6.87
2019-03-30T18:35:44.840Z,6.80
2019-03-30T18:39:08.442Z,5.53
2019-03-30T18:42:05.764Z,7.80
2019-03-30T18:45:16.245Z,6.47
2019-03-30T18:48:25.100Z,5.50
2019-03-30T18:51:32.322Z,15.23
2019-03-30T18:54:40.113Z,7.47
2019-03-30T18:57:47.050Z,8.17
2019-03-30T19:00:54.046Z,8.67
2019-03-30T19:04:02.548Z,10.53
2019-03-30T19:07:10.078Z,13.17
2019-03-30T19:10:17.087Z,8.30
2019-03-30T19:13:27.291Z,7.20
2019-03-30T19:16:36.931Z,6.50
2019-03-30T19:19:44.009Z,9.77
2019-03-30T19:22:51.020Z,10.27
2019-03-30T19:25:57.875Z,14.70
2019-03-30T19:29:07.484Z,12.13
2019-03-30T19:32:14.403Z,13.22
2019-03-30T19:35:21.495Z,16.43
2019-03-30T19:38:28.587Z,12.00
2019-03-30T19:41:38.680Z,15.53
2019-03-30T19:44:47.633Z,10.63
2019-03-30T19:47:54.551Z,13.13
2019-03-30T19:51:02.921Z,14.83
2019-03-30T19:54:09.804Z,12.40
2019-03-30T19:57:16.701Z,13.65
2019-03-30T20:00:24.449Z,17.03
2019-03-30T20:03:31.431Z,16.80
2019-03-30T20:06:38.409Z,17.00
2019-03-30T20:09:46.466Z,13.58
2019-03-30T20:12:53.367Z,16.23
2019-03-30T20:16:00.181Z,11.47
2019-03-30T20:19:12.464Z,17.67
2019-03-30T20:22:16.263Z,16.67
2019-03-30T20:25:26.014Z,17.10
2019-03-30T20:28:31.800Z,17.93
2019-03-30T20:31:38.834Z,15.13
2019-03-30T20:34:51.336Z,13.10
2019-03-30T20:38:00.649Z,18.33
2019-03-30T20:41:07.982Z,16.83
2019-03-30T20:44:14.899Z,17.73
2019-03-30T20:47:21.840Z,15.45
2019-03-30T20:50:30.190Z,12.83
2019-03-30T20:53:37.362Z,18.20
2019-03-30T20:56:55.868Z,26.23
2019-03-30T21:00:16.267Z,23.00
2019-03-30T21:03:21.221Z,17.27
2019-03-30T21:06:30.051Z,24.03
2019-03-30T21:09:38.993Z,22.23
2019-03-30T21:12:48.146Z,22.47
2019-03-30T21:15:55.347Z,24.43
2019-03-30T21:19:04.624Z,21.77
2019-03-30T21:22:12.711Z,26.40
2019-03-30T21:25:21.209Z,25.33
2019-03-30T21:28:30.998Z,24.07
2019-03-30T21:31:39.699Z,23.63
2019-03-30T21:34:46.774Z,23.38
2019-03-30T21:37:53.804Z,22.70
2019-03-30T21:41:00.701Z,23.20
2019-03-30T21:44:21.476Z,25.53
2019-03-30T21:47:16.604Z,21.00
2019-03-30T21:50:23.469Z,18.13
2019-03-30T21:53:30.443Z,26.40
2019-03-30T21:56:38.508Z,21.27
2019-03-30T21:59:46.715Z,24.98
2019-03-30T22:02:53.671Z,23.50
2019-03-30T22:06:05.264Z,19.73
2019-03-30T22:09:12.573Z,21.37
2019-03-30T22:12:19.582Z,18.25
2019-03-30T22:15:28.908Z,16.40
2019-03-30T22:18:35.808Z,17.20
2019-03-30T22:21:42.736Z,17.77
2019-03-30T22:24:49.792Z,15.23
2019-03-30T22:27:56.862Z,15.17
2019-03-30T22:31:03.764Z,11.20
2019-03-30T22:34:10.932Z,12.20
2019-03-30T22:37:17.858Z,11.85
2019-03-30T22:40:24.928Z,12.33
2019-03-30T22:43:31.795Z,11.90
2019-03-30T22:46:39.264Z,14.83
2019-03-30T22:49:46.225Z,9.80
2019-03-30T22:52:53.267Z,8.30
2019-03-30T22:56:00.214Z,7.20
2019-03-30T22:59:07.159Z,7.87
2019-03-30T23:02:14.133Z,11.43
2019-03-30T23:05:22.415Z,5.30
2019-03-30T23:08:29.388Z,5.10
2019-03-30T23:11:36.493Z,8.47
2019-03-30T23:14:43.563Z,7.10
2019-03-30T23:17:50.857Z,7.97
2019-03-30T23:20:57.737Z,6.17
2019-03-30T23:24:04.694Z,3.77
2019-03-30T23:27:11.761Z,4.00
2019-03-30T23:30:18.990Z,3.73
2019-03-30T23:33:25.931Z,4.77
2019-03-30T23:36:36.917Z,3.13
2019-03-30T23:39:43.803Z,3.43
2019-03-30T23:42:50.972Z,2.87
2019-03-30T23:45:57.862Z,3.20
2019-03-30T23:49:05.053Z,2.80
2019-03-30T23:52:12.012Z,3.60
2019-03-30T23:55:18.934Z,2.57
2019-03-30T23:58:25.840Z,2.97
